Main page
METAR-TAF:

METAR-TAF

Airports :

Silvio Pettirossi International Airport

Asunción, Paraguay

latitude: 25-16S, longitude: 057-38W, elevation: 101 m

Current weather observation

The report was made 28 minutes ago, at 21:00 UTC
Wind 10 kt from the North/Northeast
Temperature 40°C
Humidity 26%
Pressure 1005 hPa
Visibility 10 km or more
Scattered clouds at a height of 4000 ft

METAR: SGAS 222100Z 02010KT 9999 SCT040 40/17 Q1005

Time: 18:28 (21:28 UTC)

Forecast

The report was made 4 hours and 51 minutes ago, at 16:37 UTC
Forecast valid from 22 at 18 UTC to 23 at 18 UTC
Wind 14 kt from the North
Visibility 10 km or more
Scattered clouds at a height of 3300 ft
Becoming
from 22 at 21 UTC to 22 at 23 UTC
Wind 10 kt from the North/Northeast
Visibility 10 km or more
no clouds below 1500 m and no cumulonimbus

TAF: SGAS 221637Z 2218/2318 36014KT 9999 SCT033 TX40/2219Z TN28/2309Z BECMG 2221/2223 03010KT CAVOK

Weather observations and forecasts of more than 4000 airports (METAR and TAF reports).

The available stations are represented by yellow and red dots on the map.

Hover mouse over dot to see the name of the station.

Then click to see weather observations and forecasts.

To change the map : click on the green buttons with a black cross to zoom in, on the green button with a dash to zoom out, or on the green arrows for adjacent maps.


METAR-TAF: